createdAt,value
2024-03-12T00:00:16.242Z,0.009
2024-03-12T00:01:18.300Z,0.009
2024-03-12T00:02:15.877Z,0.009
2024-03-12T00:03:16.332Z,0.009
2024-03-12T00:04:16.245Z,0.009
2024-03-12T00:05:15.572Z,0.009
2024-03-12T00:06:16.002Z,0.009
2024-03-12T00:07:15.824Z,0.009
2024-03-12T00:08:16.418Z,0.009
2024-03-12T00:09:15.790Z,0.009
2024-03-12T00:10:16.898Z,0.009
2024-03-12T00:11:15.703Z,0.009
2024-03-12T00:12:16.062Z,0.009
2024-03-12T00:13:15.669Z,0.009
2024-03-12T00:14:16.274Z,0.009
2024-03-12T00:15:15.589Z,0.009
2024-03-12T00:16:17.029Z,0.009
2024-03-12T00:17:15.403Z,0.009
2024-03-12T00:18:15.993Z,0.009
2024-03-12T00:19:15.655Z,0.009
2024-03-12T00:20:16.913Z,0.009
2024-03-12T00:21:16.403Z,0.009
2024-03-12T00:22:16.126Z,0.009
2024-03-12T00:25:16.457Z,0.009
2024-03-12T00:26:15.985Z,0.009
2024-03-12T00:27:15.305Z,0.009
2024-03-12T00:28:17.125Z,0.009
2024-03-12T00:29:15.427Z,0.009
2024-03-12T00:30:16.172Z,0.009
2024-03-12T00:31:15.972Z,0.009
2024-03-12T00:32:15.356Z,0.009
2024-03-12T00:33:16.238Z,0.009
2024-03-12T00:34:16.138Z,0.009
2024-03-12T00:35:15.497Z,0.009
2024-03-12T00:36:16.008Z,0.009
2024-03-12T00:37:15.757Z,0.009
2024-03-12T00:38:16.233Z,0.009
2024-03-12T00:39:16.009Z,0.009
2024-03-12T00:40:15.809Z,0.009
2024-03-12T00:41:16.342Z,0.009
2024-03-12T00:42:15.713Z,0.009
2024-03-12T00:43:16.893Z,0.009
2024-03-12T00:44:16.428Z,0.009
2024-03-12T00:45:15.648Z,0.009
2024-03-12T00:46:16.898Z,0.009
2024-03-12T00:47:16.427Z,0.009
2024-03-12T00:48:16.140Z,0.009
2024-03-12T00:49:16.117Z,0.009
2024-03-12T00:50:15.565Z,0.009
2024-03-12T00:51:15.933Z,0.009
2024-03-12T00:52:16.715Z,0.009
2024-03-12T00:53:16.104Z,0.009
2024-03-12T00:54:15.366Z,0.009
2024-03-12T00:55:16.157Z,0.009
2024-03-12T00:56:15.533Z,0.009
2024-03-12T00:57:16.098Z,0.009
2024-03-12T00:58:16.676Z,0.009
2024-03-12T01:00:15.578Z,0.009
2024-03-12T01:01:16.856Z,0.009
2024-03-12T01:02:15.314Z,0.009
2024-03-12T01:03:15.662Z,0.009
2024-03-12T01:04:16.598Z,0.009
2024-03-12T01:05:15.920Z,0.009
2024-03-12T01:06:16.326Z,0.009
2024-03-12T01:07:16.194Z,0.009
2024-03-12T01:08:16.292Z,0.009
2024-03-12T01:09:15.577Z,0.009
2024-03-12T01:10:17.062Z,0.009
2024-03-12T01:11:15.708Z,0.009
2024-03-12T01:12:16.103Z,0.009
2024-03-12T01:13:16.691Z,0.009
2024-03-12T01:15:15.601Z,0.009
2024-03-12T01:16:16.871Z,0.009
2024-03-12T01:17:16.734Z,0.009
2024-03-12T01:18:17.399Z,0.009
2024-03-12T01:19:16.134Z,0.009
2024-03-12T01:20:15.411Z,0.009
2024-03-12T01:21:15.985Z,0.009
2024-03-12T01:22:15.623Z,0.009
2024-03-12T01:23:17.197Z,0.009
2024-03-12T01:24:15.482Z,0.009
2024-03-12T01:25:16.037Z,0.009
2024-03-12T01:26:15.347Z,0.009
2024-03-12T01:27:15.709Z,0.009
2024-03-12T01:28:18.982Z,0.009
2024-03-12T01:29:15.323Z,0.009
2024-03-12T01:30:15.726Z,0.009
2024-03-12T01:31:16.720Z,0.009
2024-03-12T01:32:16.092Z,0.009
2024-03-12T01:33:16.588Z,0.009
2024-03-12T01:34:16.227Z,0.009
2024-03-12T01:36:15.913Z,0.009
2024-03-12T01:37:17.249Z,0.009
2024-03-12T01:38:16.912Z,0.009
2024-03-12T01:40:16.617Z,0.009
2024-03-12T01:41:15.940Z,0.009
2024-03-12T01:42:16.378Z,0.009
2024-03-12T01:43:16.234Z,0.009
2024-03-12T01:44:15.591Z,0.009
2024-03-12T01:45:15.991Z,0.009
2024-03-12T01:46:15.730Z,0.009
2024-03-12T01:47:16.116Z,0.009
2024-03-12T01:48:17.939Z,0.009
2024-03-12T01:49:15.605Z,0.009
2024-03-12T01:50:15.925Z,0.009
2024-03-12T01:51:16.315Z,0.009
2024-03-12T01:52:16.042Z,0.009
2024-03-12T01:53:16.712Z,0.009
2024-03-12T01:54:16.037Z,0.009
2024-03-12T01:57:15.343Z,0.009
2024-03-12T01:58:16.244Z,0.009
2024-03-12T01:59:15.565Z,0.009
2024-03-12T02:00:15.866Z,0.009
2024-03-12T02:01:17.062Z,0.009
2024-03-12T02:02:15.773Z,0.009
2024-03-12T02:03:16.245Z,0.009
2024-03-12T02:04:16.084Z,0.009
2024-03-12T02:05:15.687Z,0.009
2024-03-12T02:06:15.990Z,0.009
2024-03-12T02:07:15.725Z,0.009
2024-03-12T02:08:16.072Z,0.009
2024-03-12T02:09:15.450Z,0.009
2024-03-12T02:10:16.071Z,0.009
2024-03-12T02:11:15.630Z,0.009
2024-03-12T02:12:15.917Z,0.009
2024-03-12T02:13:17.361Z,0.009
2024-03-12T02:14:15.809Z,0.009
2024-03-12T02:15:16.206Z,0.009
2024-03-12T02:16:16.018Z,0.009
2024-03-12T02:17:15.406Z,0.009
2024-03-12T02:18:16.219Z,0.009
2024-03-12T02:19:15.959Z,0.009
2024-03-12T02:20:15.533Z,0.009
2024-03-12T02:21:16.069Z,0.009
2024-03-12T02:22:16.005Z,0.009
2024-03-12T02:23:15.427Z,0.009
2024-03-12T02:24:15.868Z,0.009
2024-03-12T02:25:17.255Z,0.009
2024-03-12T02:26:15.558Z,0.009
2024-03-12T02:27:15.952Z,0.009
2024-03-12T02:28:17.342Z,0.009
2024-03-12T02:29:15.739Z,0.009
2024-03-12T02:30:16.958Z,0.009
2024-03-12T02:31:17.466Z,0.009
2024-03-12T02:32:15.736Z,0.009
2024-03-12T02:33:16.541Z,0.009
2024-03-12T02:34:16.310Z,0.009
2024-03-12T02:35:15.750Z,0.009
2024-03-12T02:36:16.090Z,0.009
2024-03-12T02:37:15.581Z,0.009
2024-03-12T02:38:16.103Z,0.009
2024-03-12T02:39:15.699Z,0.009
2024-03-12T02:40:17.602Z,0.009
2024-03-12T02:41:16.159Z,0.009
2024-03-12T02:42:15.474Z,0.009
2024-03-12T02:43:16.310Z,0.009
2024-03-12T02:44:15.673Z,0.009
2024-03-12T02:45:17.371Z,0.009
2024-03-12T02:46:16.192Z,0.009
2024-03-12T02:47:15.607Z,0.009
2024-03-12T02:48:16.586Z,0.009
2024-03-12T02:49:16.357Z,0.009
2024-03-12T02:51:16.205Z,0.009
2024-03-12T02:52:15.894Z,0.009
2024-03-12T02:53:16.234Z,0.009
2024-03-12T02:54:15.645Z,0.009
2024-03-12T02:55:16.436Z,0.009
2024-03-12T02:56:15.815Z,0.009
2024-03-12T02:57:16.203Z,0.009
2024-03-12T02:58:16.132Z,0.009
2024-03-12T02:59:15.525Z,0.009
2024-03-12T03:00:16.547Z,0.009
2024-03-12T03:01:17.179Z,0.009
2024-03-12T03:02:15.740Z,0.009
2024-03-12T03:03:16.191Z,0.009
2024-03-12T03:04:15.786Z,0.009
2024-03-12T03:05:16.937Z,0.009
2024-03-12T03:07:16.358Z,0.009
2024-03-12T03:08:15.794Z,0.009
2024-03-12T03:09:16.227Z,0.009
2024-03-12T03:10:18.341Z,0.009
2024-03-12T03:11:15.977Z,0.009
2024-03-12T03:12:15.350Z,0.009
2024-03-12T03:13:16.169Z,0.009
2024-03-12T03:14:15.669Z,0.009
2024-03-12T03:15:16.208Z,0.009
2024-03-12T03:16:17.474Z,0.009
2024-03-12T03:17:16.054Z,0.009
2024-03-12T03:18:16.207Z,0.009
2024-03-12T03:19:16.144Z,0.009
2024-03-12T03:20:15.565Z,0.009
2024-03-12T03:21:16.038Z,0.009
2024-03-12T03:22:16.186Z,0.009
2024-03-12T03:23:15.559Z,0.009
2024-03-12T03:24:16.003Z,0.009
2024-03-12T03:25:15.907Z,0.009
2024-03-12T03:26:16.460Z,0.009
2024-03-12T03:27:15.995Z,0.009
2024-03-12T03:28:15.620Z,0.009
2024-03-12T03:29:16.138Z,0.009
2024-03-12T03:30:15.519Z,0.009
2024-03-12T03:31:17.682Z,0.009
2024-03-12T03:32:16.114Z,0.009
2024-03-12T03:33:15.675Z,0.009
2024-03-12T03:34:16.810Z,0.009
2024-03-12T03:35:16.298Z,0.009
2024-03-12T03:36:15.606Z,0.009
2024-03-12T03:37:16.804Z,0.009
2024-03-12T03:38:16.147Z,0.009
2024-03-12T03:39:15.521Z,0.009
2024-03-12T03:40:17.020Z,0.009
2024-03-12T03:41:16.566Z,0.009
2024-03-12T03:42:16.595Z,0.009
2024-03-12T03:43:16.959Z,0.009
2024-03-12T03:44:15.335Z,0.009
2024-03-12T03:45:15.998Z,0.009
2024-03-12T03:47:16.185Z,0.009
2024-03-12T03:48:15.668Z,0.009
2024-03-12T03:49:16.346Z,0.009
2024-03-12T03:50:16.341Z,0.009
2024-03-12T03:51:15.629Z,0.009
2024-03-12T03:52:16.780Z,0.009
2024-03-12T03:53:16.207Z,0.009
2024-03-12T03:54:15.516Z,0.009
2024-03-12T03:55:16.526Z,0.009
2024-03-12T03:56:15.785Z,0.009
2024-03-12T03:57:16.613Z,0.009
2024-03-12T03:58:16.644Z,0.009
2024-03-12T03:59:15.869Z,0.009
2024-03-12T04:00:16.642Z,0.009
2024-03-12T04:01:16.977Z,0.009
2024-03-12T04:02:15.800Z,0.009
2024-03-12T04:03:16.239Z,0.009
2024-03-12T04:04:16.923Z,0.009
2024-03-12T04:06:15.780Z,0.009
2024-03-12T04:07:16.854Z,0.009
2024-03-12T04:08:16.315Z,0.009
2024-03-12T04:09:15.632Z,0.009
2024-03-12T04:10:16.833Z,0.009
2024-03-12T04:11:16.921Z,0.009
2024-03-12T04:12:16.310Z,0.009
2024-03-12T04:13:16.216Z,0.009
2024-03-12T04:14:16.308Z,0.009
2024-03-12T04:15:15.775Z,0.009
2024-03-12T04:16:16.973Z,0.009
2024-03-12T04:17:15.468Z,0.009
2024-03-12T04:18:16.716Z,0.009
2024-03-12T04:19:16.793Z,0.009
2024-03-12T04:20:16.823Z,0.009
2024-03-12T04:22:16.655Z,0.009
2024-03-12T04:23:16.149Z,0.009
2024-03-12T04:24:15.371Z,0.009
2024-03-12T04:25:16.446Z,0.009
2024-03-12T04:26:15.966Z,0.009
2024-03-12T04:28:16.563Z,0.009
2024-03-12T04:29:15.865Z,0.009
2024-03-12T04:30:16.565Z,0.009
2024-03-12T04:31:16.193Z,0.009
2024-03-12T04:32:15.706Z,0.009
2024-03-12T04:33:16.646Z,0.009
2024-03-12T04:34:16.544Z,0.009
2024-03-12T04:35:15.992Z,0.009
2024-03-12T04:36:15.507Z,0.009
2024-03-12T04:37:16.393Z,0.009
2024-03-12T04:38:19.190Z,0.009
2024-03-12T04:39:15.461Z,0.009
2024-03-12T04:40:17.489Z,0.018
2024-03-12T04:41:15.852Z,0.018
2024-03-12T04:42:16.232Z,0.018
2024-03-12T04:43:16.100Z,0.018
2024-03-12T04:44:15.475Z,0.018
2024-03-12T04:45:15.978Z,0.018
2024-03-12T04:46:15.883Z,0.027
2024-03-12T04:47:16.404Z,0.027
2024-03-12T04:48:16.303Z,0.027
2024-03-12T04:49:15.998Z,0.036
2024-03-12T04:50:15.767Z,0.045
2024-03-12T04:51:16.207Z,0.045
2024-03-12T04:52:15.980Z,0.054
2024-03-12T04:53:15.281Z,0.071
2024-03-12T04:54:16.816Z,0.080
2024-03-12T04:55:16.650Z,0.098
2024-03-12T04:56:15.951Z,0.116
2024-03-12T04:57:16.277Z,0.143
2024-03-12T04:58:16.151Z,0.178
2024-03-12T04:59:15.423Z,0.223
2024-03-12T05:00:16.839Z,0.268
2024-03-12T05:01:16.127Z,0.330
2024-03-12T05:02:15.768Z,0.410
2024-03-12T05:03:16.412Z,0.499
2024-03-12T05:04:30.533Z,0.606
2024-03-12T05:06:16.255Z,0.910
2024-03-12T05:07:16.051Z,1.115
2024-03-12T05:08:15.396Z,1.346
2024-03-12T05:09:15.682Z,1.578
2024-03-12T05:10:17.507Z,1.890
2024-03-12T05:11:16.260Z,2.327
2024-03-12T05:13:16.799Z,3.397
2024-03-12T05:14:16.371Z,4.021
2024-03-12T05:15:15.769Z,4.735
2024-03-12T05:16:16.635Z,5.805
2024-03-12T05:17:15.967Z,6.902
2024-03-12T05:18:16.040Z,8.194
2024-03-12T05:19:16.487Z,9.666
2024-03-12T05:20:16.006Z,11.797
2024-03-12T05:21:15.292Z,13.651
2024-03-12T05:22:16.450Z,15.818
2024-03-12T05:23:15.823Z,18.645
2024-03-12T05:24:16.342Z,21.855
2024-03-12T05:25:16.165Z,25.769
2024-03-12T05:26:15.580Z,30.094
2024-03-12T05:27:20.346Z,34.927
2024-03-12T05:28:16.061Z,40.571
2024-03-12T05:29:15.492Z,45.653
2024-03-12T05:30:16.380Z,52.582
2024-03-12T05:31:16.490Z,58.716
2024-03-12T05:32:15.889Z,64.762
2024-03-12T05:33:17.073Z,73.670
2024-03-12T05:34:16.318Z,82.765
2024-03-12T05:35:16.574Z,91.217
2024-03-12T05:36:15.955Z,102.363
2024-03-12T05:37:19.358Z,118.886
2024-03-12T05:38:17.864Z,130.807
2024-03-12T05:39:16.253Z,140.446
2024-03-12T05:40:16.256Z,155.034
2024-03-12T05:42:16.055Z,175.685
2024-03-12T05:43:15.881Z,187.402
2024-03-12T05:44:16.319Z,194.678
2024-03-12T05:45:15.625Z,207.206
2024-03-12T05:46:16.873Z,216.283
2024-03-12T05:47:15.281Z,230.407
2024-03-12T05:48:16.232Z,245.770
2024-03-12T05:49:16.071Z,264.049
2024-03-12T05:50:15.492Z,286.707
2024-03-12T05:51:15.853Z,312.868
2024-03-12T05:52:16.661Z,328.249
2024-03-12T05:53:15.986Z,351.495
2024-03-12T05:54:15.365Z,372.574
2024-03-12T05:55:16.258Z,392.966
2024-03-12T05:56:19.490Z,418.183
2024-03-12T05:58:16.276Z,448.071
2024-03-12T05:59:15.718Z,475.900
2024-03-12T06:00:16.158Z,481.179
2024-03-12T06:01:16.610Z,506.217
2024-03-12T06:02:17.660Z,530.934
2024-03-12T06:03:15.990Z,565.281
2024-03-12T06:04:15.984Z,603.159
2024-03-12T06:05:15.380Z,638.951
2024-03-12T06:06:15.970Z,672.656
2024-03-12T06:07:18.191Z,705.076
2024-03-12T06:08:16.177Z,733.966
2024-03-12T06:09:15.503Z,762.054
2024-03-12T06:10:16.884Z,794.635
2024-03-12T06:12:16.127Z,863.330
2024-03-12T06:13:15.774Z,898.479
2024-03-12T06:14:16.508Z,940.049
2024-03-12T06:15:15.942Z,984.989
2024-03-12T06:16:16.924Z,1038.435
2024-03-12T06:17:15.274Z,1088.511
2024-03-12T06:18:15.931Z,1130.723
2024-03-12T06:19:16.705Z,1190.589
2024-03-12T06:20:20.756Z,1253.666
2024-03-12T06:21:16.072Z,1317.705
2024-03-12T06:22:16.392Z,1406.622
2024-03-12T06:23:15.632Z,1506.614
2024-03-12T06:24:17.698Z,1546.097
2024-03-12T06:25:18.772Z,1589.110
2024-03-12T06:26:17.124Z,1613.506
2024-03-12T06:27:18.120Z,1618.161
2024-03-12T06:28:16.865Z,1606.605
2024-03-12T06:29:16.153Z,1600.667
2024-03-12T06:30:15.462Z,1612.543
2024-03-12T06:31:16.934Z,1646.249
2024-03-12T06:32:15.361Z,1683.966
2024-03-12T06:33:16.172Z,1741.104
2024-03-12T06:34:16.047Z,1817.823
2024-03-12T06:35:15.449Z,1914.444
2024-03-12T06:36:15.972Z,2017.324
2024-03-12T06:37:15.710Z,2163.219
2024-03-12T06:38:16.070Z,2254.383
2024-03-12T06:39:15.480Z,2163.059
2024-03-12T06:40:16.552Z,2117.477
2024-03-12T06:41:15.913Z,2180.553
2024-03-12T06:43:16.017Z,2113.785
2024-03-12T06:44:15.351Z,2154.873
2024-03-12T06:45:17.398Z,2161.293
2024-03-12T06:47:15.872Z,2040.276
2024-03-12T06:48:16.960Z,2159.848
2024-03-12T06:50:18.568Z,2442.970
2024-03-12T06:51:15.877Z,2585.815
2024-03-12T06:52:17.203Z,2703.462
2024-03-12T06:53:15.575Z,2837.479
2024-03-12T06:54:15.940Z,2949.188
2024-03-12T06:55:21.509Z,3041.475
2024-03-12T06:56:15.835Z,2975.670
2024-03-12T06:57:16.257Z,2961.707
2024-03-12T06:58:15.992Z,3076.143
2024-03-12T06:59:15.390Z,3096.527
2024-03-12T07:00:16.011Z,3109.206
2024-03-12T07:01:15.852Z,3177.579
2024-03-12T07:02:15.596Z,2811.157
2024-03-12T07:03:16.179Z,2621.768
2024-03-12T07:04:15.923Z,2491.923
2024-03-12T07:05:16.370Z,2627.706
2024-03-12T07:06:15.755Z,2417.130
2024-03-12T07:07:16.836Z,2408.945
2024-03-12T07:08:16.204Z,2415.846
2024-03-12T07:09:19.813Z,2460.947
2024-03-12T07:10:16.925Z,2539.913
2024-03-12T07:12:16.496Z,2596.729
2024-03-12T07:13:16.573Z,2728.500
2024-03-12T07:14:15.915Z,2891.247
2024-03-12T07:15:16.245Z,2942.607
2024-03-12T07:16:16.257Z,2881.938
2024-03-12T07:19:16.886Z,2908.581
2024-03-12T07:20:16.507Z,2933.298
2024-03-12T07:21:15.937Z,2752.736
2024-03-12T07:22:16.976Z,2581.161
2024-03-12T07:23:15.296Z,2600.903
2024-03-12T07:24:15.685Z,2811.639
2024-03-12T07:25:16.671Z,3165.220
2024-03-12T07:26:16.015Z,3778.652
2024-03-12T07:27:15.499Z,4779.048
2024-03-12T07:28:20.897Z,5850.546
2024-03-12T07:29:15.614Z,5829.360
2024-03-12T07:30:16.305Z,5358.292
2024-03-12T07:31:16.109Z,5828.397
2024-03-12T07:32:15.478Z,4874.385
2024-03-12T07:33:17.097Z,4288.399
2024-03-12T07:34:18.641Z,4001.586
2024-03-12T07:36:15.629Z,3732.106
2024-03-12T07:37:16.736Z,3683.957
2024-03-12T07:38:17.006Z,3561.977
2024-03-12T07:39:15.327Z,3610.126
2024-03-12T07:40:16.076Z,3734.514
2024-03-12T07:41:15.429Z,3983.289
2024-03-12T07:42:19.864Z,4092.910
2024-03-12T07:43:17.324Z,3835.147
2024-03-12T07:46:15.906Z,3605.633
2024-03-12T07:47:16.721Z,3687.969
2024-03-12T07:48:16.601Z,3748.317
2024-03-12T07:49:19.446Z,3951.189
2024-03-12T07:50:16.153Z,4190.976
2024-03-12T07:51:19.055Z,4361.106
2024-03-12T07:52:15.866Z,4356.452
2024-03-12T07:53:16.312Z,4223.076
2024-03-12T07:54:15.636Z,4040.748
2024-03-12T07:55:16.973Z,3825.197
2024-03-12T07:56:15.425Z,3821.023
2024-03-12T07:57:18.771Z,4048.292
2024-03-12T07:58:16.937Z,4434.936
2024-03-12T07:59:15.414Z,4967.154
2024-03-12T08:00:16.622Z,5383.170
2024-03-12T08:01:17.046Z,5124.123
2024-03-12T08:02:15.535Z,4583.238
2024-03-12T08:03:16.148Z,4134.801
2024-03-12T08:04:15.822Z,4007.364
2024-03-12T08:05:16.393Z,3954.720
2024-03-12T08:06:15.873Z,3977.030
2024-03-12T08:07:16.710Z,4006.562
2024-03-12T08:08:16.120Z,4261.756
2024-03-12T08:09:15.425Z,4384.378
2024-03-12T08:10:16.902Z,4191.618
2024-03-12T08:11:16.531Z,4022.130
2024-03-12T08:12:18.315Z,4040.908
2024-03-12T08:13:16.268Z,4086.169
2024-03-12T08:14:15.568Z,4035.772
2024-03-12T08:15:15.928Z,3944.608
2024-03-12T08:16:16.945Z,3897.903
2024-03-12T08:17:15.357Z,3961.622
2024-03-12T08:18:30.745Z,4119.232
2024-03-12T08:20:15.854Z,4119.875
2024-03-12T08:21:16.397Z,3771.750
2024-03-12T08:22:16.451Z,3425.070
2024-03-12T08:23:16.037Z,3234.556
2024-03-12T08:24:15.483Z,3180.789
2024-03-12T08:25:17.912Z,3173.085
2024-03-12T08:26:16.963Z,3238.408
2024-03-12T08:27:16.277Z,3354.931
2024-03-12T08:28:15.993Z,3481.566
2024-03-12T08:29:15.282Z,3434.700
2024-03-12T08:30:15.731Z,3376.438
2024-03-12T08:31:44.963Z,3389.760
2024-03-12T08:34:16.479Z,3264.249
2024-03-12T08:35:15.982Z,3185.283
2024-03-12T08:36:15.317Z,3139.059
2024-03-12T08:37:16.463Z,3066.192
2024-03-12T08:38:15.785Z,3083.847
2024-03-12T08:39:16.237Z,3174.208
2024-03-12T08:40:16.312Z,2883.383
2024-03-12T08:41:15.678Z,2628.027
2024-03-12T08:42:16.256Z,2711.006
2024-03-12T08:43:20.884Z,2629.150
2024-03-12T08:44:16.306Z,2455.490
2024-03-12T08:45:15.725Z,2541.036
2024-03-12T08:46:16.419Z,2611.175
2024-03-12T08:49:17.133Z,2491.762
2024-03-12T08:50:15.769Z,2600.742
2024-03-12T08:51:16.138Z,2717.265
2024-03-12T08:52:15.975Z,2585.655
2024-03-12T08:53:20.349Z,2549.061
2024-03-12T08:54:15.949Z,2613.582
2024-03-12T08:57:15.453Z,2993.325
2024-03-12T08:58:17.644Z,3008.091
2024-03-12T08:59:17.172Z,3045.006
2024-03-12T09:00:15.694Z,3144.677
2024-03-12T09:01:16.980Z,3169.394
2024-03-12T09:03:15.876Z,3946.855
2024-03-12T09:04:19.359Z,4315.203
2024-03-12T09:05:15.721Z,4499.938
2024-03-12T09:06:16.323Z,4499.938
2024-03-12T09:07:16.134Z,4485.012
2024-03-12T09:08:15.437Z,4442.319
2024-03-12T09:09:15.870Z,4233.830
2024-03-12T09:10:17.533Z,3926.472
2024-03-12T09:11:16.188Z,3680.586
2024-03-12T09:12:15.658Z,3511.580
2024-03-12T09:13:16.615Z,3420.576
2024-03-12T09:14:16.017Z,3487.184
2024-03-12T09:15:15.590Z,3674.647
2024-03-12T09:16:17.203Z,4093.071
2024-03-12T09:17:15.844Z,4558.040
2024-03-12T09:18:16.521Z,4849.507
2024-03-12T09:20:16.356Z,5153.495
2024-03-12T09:21:15.685Z,5090.257
2024-03-12T09:22:16.747Z,5103.579
2024-03-12T09:23:16.141Z,4991.229
2024-03-12T09:24:18.400Z,4581.473
2024-03-12T09:25:20.505Z,4306.696
2024-03-12T09:26:16.197Z,4190.976
2024-03-12T09:28:16.445Z,4123.727
2024-03-12T09:29:16.045Z,4033.686
2024-03-12T09:30:15.596Z,4026.143
2024-03-12T09:31:16.697Z,4203.655
2024-03-12T09:32:16.245Z,4226.928
2024-03-12T09:33:16.331Z,3778.491
2024-03-12T09:35:15.507Z,3173.566
2024-03-12T09:36:16.060Z,3175.011
2024-03-12T09:37:19.177Z,3047.253
2024-03-12T09:38:15.710Z,2890.124
2024-03-12T09:39:16.591Z,2711.166
2024-03-12T09:40:16.583Z,2620.163
2024-03-12T09:41:16.029Z,2523.381
2024-03-12T09:42:15.364Z,2400.919
2024-03-12T09:43:16.061Z,2328.213
2024-03-12T09:44:19.634Z,2295.311
2024-03-12T09:45:15.965Z,2294.668
2024-03-12T09:46:16.778Z,2205.751
2024-03-12T09:47:16.597Z,2046.375
2024-03-12T09:48:16.170Z,1837.244
2024-03-12T09:49:15.887Z,1657.162
2024-03-12T09:50:19.528Z,1615.754
2024-03-12T09:51:16.012Z,1740.623
2024-03-12T09:52:15.970Z,2057.289
2024-03-12T09:54:15.722Z,2491.762
2024-03-12T09:55:17.568Z,2410.389
2024-03-12T09:56:19.321Z,2294.990
2024-03-12T09:57:15.848Z,2227.900
2024-03-12T09:58:16.733Z,2291.298
2024-03-12T10:00:16.072Z,2124.057
2024-03-12T10:01:15.869Z,1902.567
2024-03-12T10:02:19.405Z,1816.860
2024-03-12T10:03:15.754Z,1709.967
2024-03-12T10:04:17.486Z,1513.676
2024-03-12T10:05:16.031Z,1332.471
2024-03-12T10:06:15.523Z,1262.493
2024-03-12T10:07:16.874Z,1311.766
2024-03-12T10:08:20.079Z,1426.524
2024-03-12T10:09:15.737Z,1569.048
2024-03-12T10:10:16.893Z,1745.277
2024-03-12T10:11:17.088Z,1918.617
2024-03-12T10:12:15.469Z,2016.843
2024-03-12T10:13:16.328Z,2078.475
2024-03-12T10:14:19.339Z,2007.694
2024-03-12T10:15:15.629Z,1842.058
2024-03-12T10:16:18.389Z,1711.251
2024-03-12T10:17:15.980Z,1641.433
2024-03-12T10:18:15.610Z,1650.100
2024-03-12T10:19:16.737Z,1748.166
2024-03-12T10:20:19.323Z,2029.522
2024-03-12T10:21:15.842Z,2400.598
2024-03-12T10:22:18.017Z,2687.251
2024-03-12T10:23:15.389Z,2932.335
2024-03-12T10:24:16.822Z,3136.491
2024-03-12T10:25:17.385Z,3260.397
2024-03-12T10:26:19.972Z,3285.595
2024-03-12T10:27:17.007Z,3267.138
2024-03-12T10:28:21.362Z,3208.235
2024-03-12T10:29:15.665Z,3183.518
2024-03-12T10:30:16.177Z,3136.972
2024-03-12T10:31:17.733Z,3174.851
2024-03-12T10:32:19.061Z,3284.793
2024-03-12T10:33:15.718Z,3290.250
2024-03-12T10:34:16.597Z,3280.941
2024-03-12T10:36:16.834Z,3342.573
2024-03-12T10:37:16.543Z,3381.093
2024-03-12T10:38:16.583Z,3235.198
2024-03-12T10:39:16.057Z,2947.583
2024-03-12T10:40:15.651Z,2666.708
2024-03-12T10:41:15.960Z,2576.988
2024-03-12T10:42:15.498Z,2586.618
2024-03-12T10:43:16.360Z,2549.542
2024-03-12T10:44:19.111Z,2490.639
2024-03-12T10:45:15.472Z,2386.956
2024-03-12T10:46:16.615Z,2219.073
2024-03-12T10:47:16.220Z,2128.230
2024-03-12T10:48:15.724Z,2134.168
2024-03-12T10:49:16.552Z,2144.119
2024-03-12T10:50:15.976Z,2111.859
2024-03-12T10:51:15.242Z,2120.044
2024-03-12T10:52:16.214Z,2310.076
2024-03-12T10:53:15.608Z,2653.065
2024-03-12T10:54:16.098Z,2971.657
2024-03-12T10:55:20.977Z,3154.306
2024-03-12T10:56:23.251Z,3372.747
2024-03-12T10:57:15.699Z,3657.956
2024-03-12T10:58:16.658Z,3666.623
2024-03-12T10:59:16.153Z,3435.823
2024-03-12T11:00:15.564Z,3182.233
2024-03-12T11:01:16.759Z,3185.925
2024-03-12T11:02:20.464Z,3550.100
2024-03-12T11:03:15.830Z,3834.185
2024-03-12T11:04:16.894Z,3884.100
2024-03-12T11:05:16.352Z,3898.866
2024-03-12T11:06:15.670Z,4321.623
2024-03-12T11:07:16.557Z,4659.476
2024-03-12T11:08:19.043Z,4836.828
2024-03-12T11:09:15.328Z,5076.455
2024-03-12T11:10:16.512Z,5409.813
2024-03-12T11:11:16.348Z,5711.874
2024-03-12T11:12:15.841Z,5966.427
2024-03-12T11:13:16.935Z,6296.896
2024-03-12T11:14:20.157Z,6564.771
2024-03-12T11:15:15.518Z,6683.862
2024-03-12T11:16:16.545Z,6563.808
2024-03-12T11:17:15.870Z,6340.713
2024-03-12T11:18:16.686Z,6217.770
2024-03-12T11:19:16.300Z,6046.195
2024-03-12T11:20:19.120Z,5640.933
2024-03-12T11:21:15.429Z,5235.350
2024-03-12T11:22:16.477Z,5551.695
2024-03-12T11:23:15.870Z,6826.707
2024-03-12T11:24:16.167Z,8417.262
2024-03-12T11:25:15.847Z,9699.015
2024-03-12T11:26:16.322Z,10396.869
2024-03-12T11:27:15.687Z,10814.811
2024-03-12T11:28:16.921Z,10853.812
2024-03-12T11:29:16.263Z,10312.928
2024-03-12T11:30:17.108Z,9327.778
2024-03-12T11:31:15.938Z,8570.379
2024-03-12T11:32:21.211Z,8505.537
2024-03-12T11:33:18.667Z,7923.885
2024-03-12T11:34:19.556Z,7080.297
2024-03-12T11:35:18.998Z,6745.173
2024-03-12T11:36:18.284Z,6577.129
2024-03-12T11:37:19.191Z,6179.892
2024-03-12T11:38:24.121Z,5727.924
2024-03-12T11:39:18.457Z,5349.144
2024-03-12T11:40:19.304Z,5389.108
2024-03-12T11:41:18.981Z,5620.389
2024-03-12T11:42:15.278Z,5982.156
2024-03-12T11:43:16.408Z,6578.895
2024-03-12T11:44:18.961Z,7428.743
2024-03-12T11:45:16.304Z,8321.925
2024-03-12T11:46:16.817Z,9121.055
2024-03-12T11:47:16.175Z,9480.093
2024-03-12T11:49:16.868Z,8584.984
2024-03-12T11:50:17.449Z,7807.522
2024-03-12T11:51:15.795Z,7272.416
2024-03-12T11:52:16.727Z,6758.013
2024-03-12T11:53:16.084Z,6112.643
2024-03-12T11:54:15.396Z,5433.888
2024-03-12T11:55:16.424Z,4811.469
2024-03-12T11:56:21.905Z,4347.303
2024-03-12T11:57:16.189Z,4005.759
2024-03-12T11:59:29.443Z,3348.351
2024-03-12T12:02:19.019Z,3833.382
2024-03-12T12:03:15.337Z,3754.095
2024-03-12T12:04:16.597Z,3600.176
2024-03-12T12:06:15.528Z,4518.235
2024-03-12T12:07:16.410Z,5042.910
2024-03-12T12:08:16.003Z,5466.951
2024-03-12T12:09:17.381Z,5559.399
2024-03-12T12:10:16.443Z,5490.224
2024-03-12T12:11:16.017Z,5628.093
2024-03-12T12:12:15.376Z,5931.599
2024-03-12T12:13:16.395Z,6136.396
2024-03-12T12:14:20.827Z,6314.551
2024-03-12T12:15:16.145Z,6649.515
2024-03-12T12:16:15.974Z,6919.797
2024-03-12T12:17:16.209Z,7171.622
2024-03-12T12:18:16.108Z,7367.271
2024-03-12T12:19:34.911Z,7473.041
2024-03-12T12:21:15.397Z,7665.319
2024-03-12T12:22:16.189Z,7552.648
2024-03-12T12:23:15.666Z,7292.317
2024-03-12T12:24:17.389Z,7060.234
2024-03-12T12:25:16.354Z,6919.155
2024-03-12T12:26:15.754Z,6776.310
2024-03-12T12:27:16.203Z,6608.587
2024-03-12T12:28:16.301Z,6590.130
2024-03-12T12:29:15.694Z,6796.854
2024-03-12T12:30:19.059Z,7170.498
2024-03-12T12:31:15.529Z,7509.634
2024-03-12T12:32:15.999Z,7706.889
2024-03-12T12:33:15.613Z,7714.433
2024-03-12T12:34:17.797Z,7669.332
2024-03-12T12:35:16.378Z,7568.699
2024-03-12T12:36:15.774Z,7286.860
2024-03-12T12:37:16.810Z,6873.573
2024-03-12T12:38:16.250Z,6391.431
2024-03-12T12:39:16.458Z,5982.156
2024-03-12T12:41:17.478Z,5405.479
2024-03-12T12:42:15.825Z,5236.312
2024-03-12T12:43:16.738Z,4996.525
2024-03-12T12:44:16.289Z,4678.093
2024-03-12T12:45:16.069Z,4347.463
2024-03-12T12:46:15.640Z,4050.539
2024-03-12T12:47:16.070Z,3816.208
2024-03-12T12:48:15.846Z,3745.909
2024-03-12T12:49:16.792Z,3902.558
2024-03-12T12:50:16.488Z,4312.475
2024-03-12T12:51:15.829Z,5012.415
2024-03-12T12:52:17.880Z,6009.120
2024-03-12T12:53:16.721Z,7264.069
2024-03-12T12:54:16.711Z,10855.097
2024-03-12T12:55:15.634Z,11272.718
2024-03-12T12:56:16.101Z,9529.206
2024-03-12T12:58:17.534Z,8031.420
2024-03-12T12:59:15.915Z,7252.674
2024-03-12T13:00:16.384Z,6814.188
2024-03-12T13:01:16.762Z,6476.817
2024-03-12T13:02:17.323Z,6176.842
2024-03-12T13:03:15.843Z,5912.338